LNI780 WAAA-WAFF
Flight info
| Callsign | LNI780 |
|---|---|
| Flight time | 0h 53m |
| Altitude | 35000 |
| Route | NIVEK DCT EMSIV DCT OMDEG |
| Aircraft | B738/M-SDE2E3FGHIRWXY/LB1 |
Departure
| Time | 2026-04-27 03:33 |
|---|---|
| Airport | Sultan Hasanuddin International Airport (WAAA) |
Arrival
| Time | 2026-04-27 04:26 |
|---|---|
| Airport | Mutiara - SIS Al-Jufrie Airport (WAFF) |
| Time | Latitude | Longitude | Altitude | Speed | Heading |
|---|---|---|---|---|---|
| 2026-04-27 03:22 | -5.07825 | 119.54782 | 40 ft | 0 kts | 30° |
| 2026-04-27 03:25 | -5.07813 | 119.54789 | 38 ft | 4 kts | 30° |
| 2026-04-27 03:25 | -5.07773 | 119.54812 | 40 ft | 9 kts | 30° |
| 2026-04-27 03:26 | -5.07706 | 119.54852 | 40 ft | 13 kts | 30° |
| 2026-04-27 03:26 | -5.07618 | 119.54904 | 40 ft | 16 kts | 33° |
| 2026-04-27 03:26 | -5.07584 | 119.55013 | 40 ft | 18 kts | 99° |
| 2026-04-27 03:26 | -5.07613 | 119.55112 | 40 ft | 15 kts | 73° |
| 2026-04-27 03:27 | -5.07548 | 119.55170 | 40 ft | 12 kts | 30° |
| 2026-04-27 03:27 | -5.07468 | 119.55216 | 40 ft | 14 kts | 30° |
| 2026-04-27 03:27 | -5.07378 | 119.55268 | 40 ft | 15 kts | 30° |
| 2026-04-27 03:27 | -5.07283 | 119.55322 | 39 ft | 16 kts | 30° |
| 2026-04-27 03:28 | -5.07183 | 119.55380 | 40 ft | 17 kts | 30° |
| 2026-04-27 03:28 | -5.07075 | 119.55442 | 40 ft | 18 kts | 30° |
| 2026-04-27 03:28 | -5.06960 | 119.55509 | 40 ft | 20 kts | 29° |
| 2026-04-27 03:28 | -5.06845 | 119.55575 | 40 ft | 15 kts | 30° |
| 2026-04-27 03:29 | -5.06768 | 119.55619 | 40 ft | 14 kts | 30° |
| 2026-04-27 03:29 | -5.06686 | 119.55666 | 40 ft | 10 kts | 30° |
| 2026-04-27 03:29 | -5.06662 | 119.55723 | 40 ft | 6 kts | 111° |
| 2026-04-27 03:29 | -5.06690 | 119.55762 | 40 ft | 8 kts | 130° |
| 2026-04-27 03:30 | -5.06724 | 119.55811 | 41 ft | 9 kts | 129° |
| 2026-04-27 03:30 | -5.06786 | 119.55812 | 40 ft | 10 kts | 207° |
| 2026-04-27 03:30 | -5.06813 | 119.55798 | 40 ft | 1 kts | 209° |
| 2026-04-27 03:30 | -5.06820 | 119.55794 | 40 ft | 0 kts | 210° |
| 2026-04-27 03:31 | -5.06822 | 119.55792 | 40 ft | 1 kts | 210° |
| 2026-04-27 03:31 | -5.06827 | 119.55789 | 40 ft | 1 kts | 210° |
| 2026-04-27 03:32 | -5.06833 | 119.55786 | 40 ft | 1 kts | 210° |
| 2026-04-27 03:32 | -5.06837 | 119.55784 | 40 ft | 0 kts | 210° |
| 2026-04-27 03:32 | -5.06927 | 119.55731 | 39 ft | 44 kts | 210° |
| 2026-04-27 03:32 | -5.07456 | 119.55427 | 40 ft | 126 kts | 210° |
| 2026-04-27 03:33 | -5.08390 | 119.54891 | 261 ft | 171 kts | 212° |
| 2026-04-27 03:33 | -5.09419 | 119.54278 | 1203 ft | 171 kts | 212° |
| 2026-04-27 03:33 | -5.10448 | 119.53666 | 2101 ft | 173 kts | 211° |
| 2026-04-27 03:33 | -5.11551 | 119.53004 | 2598 ft | 199 kts | 212° |
| 2026-04-27 03:34 | -5.12782 | 119.52179 | 2815 ft | 227 kts | 225° |
| 2026-04-27 03:34 | -5.13608 | 119.50774 | 3179 ft | 243 kts | 253° |
| 2026-04-27 03:34 | -5.13855 | 119.49028 | 3516 ft | 263 kts | 268° |
| 2026-04-27 03:34 | -5.13870 | 119.47154 | 4189 ft | 272 kts | 271° |
| 2026-04-27 03:35 | -5.13839 | 119.45250 | 5090 ft | 274 kts | 271° |
| 2026-04-27 03:35 | -5.13806 | 119.43330 | 5976 ft | 277 kts | 271° |
| 2026-04-27 03:35 | -5.13780 | 119.41388 | 6772 ft | 281 kts | 271° |
| 2026-04-27 03:35 | -5.13760 | 119.39415 | 7543 ft | 285 kts | 270° |
| 2026-04-27 03:36 | -5.13747 | 119.37412 | 8323 ft | 289 kts | 270° |
| 2026-04-27 03:36 | -5.13738 | 119.35384 | 9096 ft | 294 kts | 270° |
| 2026-04-27 03:36 | -5.13732 | 119.33317 | 9881 ft | 297 kts | 270° |
| 2026-04-27 03:36 | -5.13727 | 119.31217 | 10431 ft | 309 kts | 270° |
| 2026-04-27 03:37 | -5.13724 | 119.28970 | 10597 ft | 334 kts | 270° |
| 2026-04-27 03:37 | -5.13722 | 119.26578 | 10932 ft | 350 kts | 270° |
| 2026-04-27 03:37 | -5.13720 | 119.24117 | 11531 ft | 355 kts | 270° |
| 2026-04-27 03:37 | -5.13503 | 119.21646 | 12194 ft | 358 kts | 287° |
| 2026-04-27 03:38 | -5.12311 | 119.19477 | 12879 ft | 359 kts | 313° |
| 2026-04-27 03:38 | -5.10355 | 119.17934 | 13571 ft | 360 kts | 332° |
| 2026-04-27 03:38 | -5.08012 | 119.17068 | 14146 ft | 362 kts | 348° |
| 2026-04-27 03:38 | -5.05529 | 119.16549 | 14708 ft | 366 kts | 350° |
| 2026-04-27 03:39 | -5.03012 | 119.16090 | 15266 ft | 370 kts | 351° |
| 2026-04-27 03:39 | -5.00462 | 119.15641 | 15837 ft | 374 kts | 351° |
| 2026-04-27 03:39 | -4.97894 | 119.15185 | 16410 ft | 377 kts | 351° |
| 2026-04-27 03:39 | -4.95299 | 119.14716 | 16965 ft | 380 kts | 351° |
| 2026-04-27 03:40 | -4.92723 | 119.14242 | 17493 ft | 384 kts | 351° |
| 2026-04-27 03:40 | -4.90085 | 119.13749 | 18020 ft | 387 kts | 351° |
| 2026-04-27 03:40 | -4.87427 | 119.13248 | 18502 ft | 390 kts | 351° |
| 2026-04-27 03:40 | -4.84747 | 119.12740 | 18966 ft | 393 kts | 350° |
| 2026-04-27 03:41 | -4.82059 | 119.12229 | 19438 ft | 395 kts | 351° |
| 2026-04-27 03:41 | -4.79348 | 119.11712 | 19891 ft | 397 kts | 351° |
| 2026-04-27 03:41 | -4.76623 | 119.11193 | 20329 ft | 400 kts | 351° |
| 2026-04-27 03:41 | -4.73876 | 119.10669 | 20764 ft | 403 kts | 351° |
| 2026-04-27 03:42 | -4.71110 | 119.10142 | 21195 ft | 406 kts | 351° |
| 2026-04-27 03:42 | -4.68326 | 119.09611 | 21621 ft | 409 kts | 351° |
| 2026-04-27 03:42 | -4.65526 | 119.09077 | 22034 ft | 411 kts | 351° |
| 2026-04-27 03:42 | -4.62704 | 119.08539 | 22445 ft | 414 kts | 351° |
| 2026-04-27 03:43 | -4.59867 | 119.07999 | 22850 ft | 416 kts | 351° |
| 2026-04-27 03:43 | -4.57014 | 119.07455 | 23245 ft | 419 kts | 351° |
| 2026-04-27 03:43 | -4.54143 | 119.06908 | 23597 ft | 421 kts | 351° |
| 2026-04-27 03:43 | -4.51253 | 119.06357 | 23915 ft | 423 kts | 351° |
| 2026-04-27 03:44 | -4.48351 | 119.05805 | 24230 ft | 426 kts | 351° |
| 2026-04-27 03:44 | -4.45436 | 119.05249 | 24541 ft | 428 kts | 351° |
| 2026-04-27 03:44 | -4.42505 | 119.04691 | 24849 ft | 430 kts | 351° |
| 2026-04-27 03:44 | -4.39555 | 119.04129 | 25144 ft | 432 kts | 351° |
| 2026-04-27 03:45 | -4.36596 | 119.03566 | 25432 ft | 435 kts | 351° |
| 2026-04-27 03:45 | -4.33614 | 119.02998 | 25725 ft | 437 kts | 351° |
| 2026-04-27 03:45 | -4.30617 | 119.02428 | 26013 ft | 439 kts | 351° |
| 2026-04-27 03:45 | -4.27609 | 119.01855 | 26293 ft | 442 kts | 351° |
| 2026-04-27 03:46 | -4.24580 | 119.01278 | 26574 ft | 444 kts | 351° |
| 2026-04-27 03:46 | -4.21544 | 119.00700 | 26851 ft | 446 kts | 351° |
| 2026-04-27 03:46 | -4.18483 | 119.00117 | 27122 ft | 448 kts | 351° |
| 2026-04-27 03:46 | -4.15416 | 118.99534 | 27382 ft | 450 kts | 351° |
| 2026-04-27 03:47 | -4.12332 | 118.98947 | 27646 ft | 452 kts | 351° |
| 2026-04-27 03:47 | -4.09233 | 118.98357 | 27912 ft | 454 kts | 351° |
| 2026-04-27 03:47 | -4.06119 | 118.97765 | 28169 ft | 456 kts | 351° |
| 2026-04-27 03:47 | -4.02992 | 118.97170 | 28421 ft | 458 kts | 351° |
| 2026-04-27 03:48 | -3.99853 | 118.96572 | 28666 ft | 460 kts | 351° |
| 2026-04-27 03:48 | -3.96745 | 118.95981 | 28907 ft | 462 kts | 351° |
| 2026-04-27 03:48 | -3.93583 | 118.95380 | 29151 ft | 464 kts | 351° |
| 2026-04-27 03:48 | -3.90409 | 118.94776 | 29392 ft | 465 kts | 351° |
| 2026-04-27 03:49 | -3.87224 | 118.94170 | 29610 ft | 467 kts | 351° |
| 2026-04-27 03:49 | -3.84026 | 118.93562 | 29840 ft | 469 kts | 351° |
| 2026-04-27 03:49 | -3.80813 | 118.92951 | 30044 ft | 470 kts | 351° |
| 2026-04-27 03:49 | -3.77593 | 118.92338 | 30238 ft | 472 kts | 350° |
| 2026-04-27 03:50 | -3.74367 | 118.91725 | 30428 ft | 473 kts | 350° |
| 2026-04-27 03:50 | -3.71133 | 118.91110 | 30610 ft | 474 kts | 350° |
| 2026-04-27 03:50 | -3.67882 | 118.90492 | 30788 ft | 476 kts | 350° |
| 2026-04-27 03:50 | -3.64630 | 118.89874 | 30986 ft | 476 kts | 350° |
| 2026-04-27 03:51 | -3.61377 | 118.89255 | 31241 ft | 476 kts | 350° |
| 2026-04-27 03:51 | -3.58127 | 118.88637 | 31531 ft | 474 kts | 350° |
| 2026-04-27 03:51 | -3.54892 | 118.88023 | 31796 ft | 474 kts | 351° |
| 2026-04-27 03:51 | -3.51654 | 118.87407 | 32043 ft | 474 kts | 351° |
| 2026-04-27 03:52 | -3.48416 | 118.86792 | 32296 ft | 473 kts | 351° |
| 2026-04-27 03:52 | -3.45182 | 118.86177 | 32556 ft | 473 kts | 351° |
| 2026-04-27 03:52 | -3.41947 | 118.85563 | 32824 ft | 472 kts | 350° |
| 2026-04-27 03:52 | -3.38722 | 118.84950 | 33088 ft | 472 kts | 350° |
| 2026-04-27 03:53 | -3.35494 | 118.84337 | 33360 ft | 472 kts | 350° |
| 2026-04-27 03:53 | -3.32269 | 118.83724 | 33602 ft | 472 kts | 350° |
| 2026-04-27 03:53 | -3.29044 | 118.83112 | 33874 ft | 471 kts | 350° |
| 2026-04-27 03:53 | -3.25825 | 118.82500 | 34127 ft | 470 kts | 350° |
| 2026-04-27 03:54 | -3.22611 | 118.81890 | 34377 ft | 470 kts | 350° |
| 2026-04-27 03:54 | -3.19406 | 118.81281 | 34606 ft | 469 kts | 350° |
| 2026-04-27 03:54 | -3.16200 | 118.80672 | 34824 ft | 469 kts | 350° |
| 2026-04-27 03:55 | -3.09764 | 118.79451 | 34885 ft | 470 kts | 350° |
| 2026-04-27 03:55 | -3.03351 | 118.78233 | 34887 ft | 469 kts | 350° |
| 2026-04-27 03:56 | -2.96950 | 118.77017 | 34892 ft | 468 kts | 350° |
| 2026-04-27 03:56 | -2.90547 | 118.75802 | 34891 ft | 468 kts | 350° |
| 2026-04-27 03:57 | -2.84141 | 118.74586 | 34891 ft | 469 kts | 350° |
| 2026-04-27 03:57 | -2.77736 | 118.73370 | 34885 ft | 469 kts | 350° |
| 2026-04-27 03:58 | -2.71319 | 118.72153 | 34883 ft | 469 kts | 351° |
| 2026-04-27 03:58 | -2.64845 | 118.71915 | 34888 ft | 466 kts | 8° |
| 2026-04-27 03:59 | -2.58581 | 118.73444 | 34891 ft | 464 kts | 19° |
| 2026-04-27 03:59 | -2.52438 | 118.75416 | 34878 ft | 464 kts | 19° |
| 2026-04-27 04:00 | -2.46283 | 118.77380 | 34878 ft | 464 kts | 19° |
| 2026-04-27 04:00 | -2.40152 | 118.79297 | 34875 ft | 465 kts | 19° |
| 2026-04-27 04:01 | -2.33983 | 118.81207 | 34876 ft | 464 kts | 19° |
| 2026-04-27 04:01 | -2.27806 | 118.83116 | 34870 ft | 464 kts | 19° |
| 2026-04-27 04:02 | -2.21633 | 118.85026 | 34871 ft | 464 kts | 19° |
| 2026-04-27 04:02 | -2.15469 | 118.86933 | 34870 ft | 464 kts | 19° |
| 2026-04-27 04:03 | -2.09306 | 118.88840 | 34870 ft | 463 kts | 19° |
| 2026-04-27 04:03 | -2.03147 | 118.90746 | 34869 ft | 463 kts | 19° |
| 2026-04-27 04:04 | -1.96984 | 118.92654 | 34487 ft | 469 kts | 19° |
| 2026-04-27 04:04 | -1.93861 | 118.93621 | 33920 ft | 468 kts | 19° |
| 2026-04-27 04:04 | -1.90746 | 118.94584 | 33243 ft | 468 kts | 19° |
| 2026-04-27 04:04 | -1.87649 | 118.95542 | 32774 ft | 463 kts | 19° |
| 2026-04-27 04:05 | -1.84584 | 118.96489 | 32284 ft | 459 kts | 19° |
| 2026-04-27 04:05 | -1.81543 | 118.97429 | 31806 ft | 455 kts | 19° |
| 2026-04-27 04:05 | -1.78528 | 118.98361 | 31338 ft | 451 kts | 20° |
| 2026-04-27 04:05 | -1.75540 | 118.99285 | 30872 ft | 448 kts | 20° |
| 2026-04-27 04:06 | -1.72574 | 119.00203 | 30407 ft | 445 kts | 20° |
| 2026-04-27 04:06 | -1.69629 | 119.01114 | 29937 ft | 442 kts | 20° |
| 2026-04-27 04:06 | -1.66703 | 119.02019 | 29397 ft | 439 kts | 20° |
| 2026-04-27 04:07 | -1.60930 | 119.03804 | 28412 ft | 430 kts | 20° |
| 2026-04-27 04:07 | -1.58121 | 119.04673 | 27951 ft | 426 kts | 19° |
| 2026-04-27 04:07 | -1.55304 | 119.05544 | 27485 ft | 422 kts | 19° |
| 2026-04-27 04:07 | -1.52507 | 119.06409 | 27026 ft | 418 kts | 19° |
| 2026-04-27 04:08 | -1.49738 | 119.07266 | 26578 ft | 415 kts | 19° |
| 2026-04-27 04:08 | -1.46993 | 119.08115 | 26128 ft | 412 kts | 19° |
| 2026-04-27 04:08 | -1.44265 | 119.08959 | 25682 ft | 409 kts | 19° |
| 2026-04-27 04:08 | -1.41549 | 119.09799 | 25219 ft | 407 kts | 19° |
| 2026-04-27 04:09 | -1.38853 | 119.10633 | 24773 ft | 405 kts | 19° |
| 2026-04-27 04:09 | -1.36170 | 119.11463 | 24314 ft | 403 kts | 19° |
| 2026-04-27 04:09 | -1.33500 | 119.12289 | 23867 ft | 401 kts | 19° |
| 2026-04-27 04:09 | -1.30834 | 119.13113 | 23415 ft | 400 kts | 19° |
| 2026-04-27 04:10 | -1.28185 | 119.13932 | 22899 ft | 398 kts | 19° |
| 2026-04-27 04:10 | -1.25551 | 119.14747 | 22437 ft | 394 kts | 19° |
| 2026-04-27 04:10 | -1.22941 | 119.15554 | 21986 ft | 391 kts | 19° |
| 2026-04-27 04:10 | -1.20354 | 119.16353 | 21549 ft | 388 kts | 19° |
| 2026-04-27 04:11 | -1.17786 | 119.17147 | 21113 ft | 385 kts | 19° |
| 2026-04-27 04:11 | -1.15239 | 119.17935 | 20690 ft | 382 kts | 19° |
| 2026-04-27 04:11 | -1.12710 | 119.18717 | 20265 ft | 379 kts | 19° |
| 2026-04-27 04:11 | -1.10194 | 119.19495 | 19844 ft | 377 kts | 19° |
| 2026-04-27 04:12 | -1.07700 | 119.20267 | 19419 ft | 375 kts | 19° |
| 2026-04-27 04:12 | -1.05213 | 119.21036 | 18991 ft | 373 kts | 18° |
| 2026-04-27 04:12 | -1.02736 | 119.21802 | 18560 ft | 372 kts | 18° |
| 2026-04-27 04:12 | -1.00270 | 119.22564 | 18135 ft | 370 kts | 18° |
| 2026-04-27 04:13 | -0.97903 | 119.23539 | 17655 ft | 367 kts | 31° |
| 2026-04-27 04:13 | -0.95871 | 119.24982 | 17215 ft | 363 kts | 43° |
| 2026-04-27 04:13 | -0.94183 | 119.26835 | 16774 ft | 359 kts | 53° |
| 2026-04-27 04:13 | -0.92699 | 119.28824 | 16364 ft | 356 kts | 54° |
| 2026-04-27 04:14 | -0.91245 | 119.30816 | 15948 ft | 353 kts | 54° |
| 2026-04-27 04:14 | -0.89803 | 119.32796 | 15537 ft | 351 kts | 54° |
| 2026-04-27 04:14 | -0.88366 | 119.34761 | 15135 ft | 349 kts | 54° |
| 2026-04-27 04:14 | -0.86936 | 119.36707 | 14743 ft | 347 kts | 54° |
| 2026-04-27 04:15 | -0.85512 | 119.38639 | 14345 ft | 345 kts | 54° |
| 2026-04-27 04:15 | -0.84091 | 119.40561 | 13935 ft | 343 kts | 54° |
| 2026-04-27 04:15 | -0.82671 | 119.42480 | 13514 ft | 342 kts | 54° |
| 2026-04-27 04:15 | -0.81261 | 119.44383 | 13090 ft | 340 kts | 54° |
| 2026-04-27 04:16 | -0.79859 | 119.46275 | 12685 ft | 337 kts | 54° |
| 2026-04-27 04:16 | -0.78470 | 119.48149 | 12288 ft | 335 kts | 54° |
| 2026-04-27 04:16 | -0.77090 | 119.50010 | 11888 ft | 332 kts | 54° |
| 2026-04-27 04:16 | -0.75719 | 119.51861 | 11513 ft | 330 kts | 54° |
| 2026-04-27 04:17 | -0.74357 | 119.53697 | 11130 ft | 328 kts | 54° |
| 2026-04-27 04:17 | -0.73008 | 119.55518 | 10750 ft | 325 kts | 54° |
| 2026-04-27 04:17 | -0.71665 | 119.57330 | 10416 ft | 322 kts | 54° |
| 2026-04-27 04:17 | -0.70353 | 119.59099 | 10316 ft | 311 kts | 54° |
| 2026-04-27 04:18 | -0.69092 | 119.60799 | 10234 ft | 299 kts | 54° |
| 2026-04-27 04:18 | -0.67880 | 119.62435 | 10115 ft | 285 kts | 54° |
| 2026-04-27 04:18 | -0.66717 | 119.64004 | 10011 ft | 277 kts | 54° |
| 2026-04-27 04:18 | -0.65574 | 119.65545 | 9753 ft | 275 kts | 54° |
| 2026-04-27 04:19 | -0.64440 | 119.67076 | 9466 ft | 273 kts | 54° |
| 2026-04-27 04:19 | -0.63313 | 119.68596 | 9182 ft | 272 kts | 54° |
| 2026-04-27 04:19 | -0.62192 | 119.70109 | 8897 ft | 270 kts | 54° |
| 2026-04-27 04:19 | -0.61074 | 119.71616 | 8599 ft | 269 kts | 54° |
| 2026-04-27 04:20 | -0.60433 | 119.72666 | 8408 ft | 268 kts | 69° |
| 2026-04-27 04:20 | -0.60139 | 119.74475 | 8132 ft | 265 kts | 95° |
| 2026-04-27 04:20 | -0.60675 | 119.76233 | 7750 ft | 270 kts | 120° |
| 2026-04-27 04:20 | -0.61936 | 119.77630 | 7346 ft | 276 kts | 143° |
| 2026-04-27 04:21 | -0.63646 | 119.78564 | 6686 ft | 286 kts | 155° |
| 2026-04-27 04:21 | -0.65503 | 119.79334 | 5992 ft | 292 kts | 156° |
| 2026-04-27 04:21 | -0.67392 | 119.80122 | 5266 ft | 296 kts | 155° |
| 2026-04-27 04:21 | -0.69284 | 119.80946 | 4740 ft | 294 kts | 155° |
| 2026-04-27 04:22 | -0.71130 | 119.81764 | 4353 ft | 287 kts | 155° |
| 2026-04-27 04:22 | -0.72931 | 119.82565 | 3986 ft | 279 kts | 155° |
| 2026-04-27 04:22 | -0.74679 | 119.83342 | 3649 ft | 272 kts | 155° |
| 2026-04-27 04:22 | -0.76388 | 119.84101 | 3300 ft | 265 kts | 155° |
| 2026-04-27 04:23 | -0.78035 | 119.84831 | 2975 ft | 253 kts | 155° |
| 2026-04-27 04:23 | -0.79609 | 119.85530 | 2649 ft | 242 kts | 155° |
| 2026-04-27 04:23 | -0.81109 | 119.86195 | 2350 ft | 229 kts | 155° |
| 2026-04-27 04:23 | -0.82505 | 119.86815 | 2066 ft | 211 kts | 155° |
| 2026-04-27 04:24 | -0.83792 | 119.87386 | 1816 ft | 194 kts | 156° |
| 2026-04-27 04:24 | -0.84978 | 119.87913 | 1584 ft | 179 kts | 156° |
| 2026-04-27 04:24 | -0.86059 | 119.88394 | 1368 ft | 162 kts | 156° |
| 2026-04-27 04:24 | -0.87053 | 119.88833 | 1142 ft | 152 kts | 156° |
| 2026-04-27 04:25 | -0.88018 | 119.89261 | 942 ft | 153 kts | 156° |
| 2026-04-27 04:25 | -0.88995 | 119.89696 | 729 ft | 155 kts | 157° |
| 2026-04-27 04:25 | -0.89971 | 119.90122 | 483 ft | 151 kts | 156° |
| 2026-04-27 04:25 | -0.90923 | 119.90549 | 285 ft | 143 kts | 156° |
| 2026-04-27 04:26 | -0.91642 | 119.90869 | 260 ft | 81 kts | 156° |
| 2026-04-27 04:26 | -0.92002 | 119.91030 | 245 ft | 49 kts | 156° |
| 2026-04-27 04:26 | -0.92271 | 119.91151 | 230 ft | 39 kts | 155° |
| 2026-04-27 04:26 | -0.92454 | 119.91249 | 239 ft | 9 kts | 158° |
| 2026-04-27 04:27 | -0.92479 | 119.91225 | 241 ft | 4 kts | 309° |
| 2026-04-27 04:27 | -0.92442 | 119.91214 | 240 ft | 7 kts | 343° |
| 2026-04-27 04:27 | -0.92381 | 119.91195 | 223 ft | 11 kts | 342° |
| 2026-04-27 04:27 | -0.92303 | 119.91166 | 227 ft | 13 kts | 340° |
| 2026-04-27 04:28 | -0.92216 | 119.91136 | 231 ft | 14 kts | 340° |
| 2026-04-27 04:28 | -0.92131 | 119.91093 | 236 ft | 14 kts | 330° |
| 2026-04-27 04:28 | -0.92044 | 119.91051 | 242 ft | 15 kts | 332° |
| 2026-04-27 04:28 | -0.91948 | 119.91006 | 247 ft | 15 kts | 335° |
| 2026-04-27 04:29 | -0.91871 | 119.90943 | 252 ft | 15 kts | 275° |
| 2026-04-27 04:29 | -0.91907 | 119.90836 | 252 ft | 16 kts | 247° |
| 2026-04-27 04:29 | -0.91860 | 119.90784 | 253 ft | 12 kts | 339° |
| 2026-04-27 04:29 | -0.91778 | 119.90748 | 256 ft | 13 kts | 334° |
| 2026-04-27 04:30 | -0.91757 | 119.90710 | 254 ft | 2 kts | 254° |
| 2026-04-27 04:30 | -0.91762 | 119.90697 | 253 ft | 0 kts | 245° |